Terminal Aerodrome Forecast
Issued by NWS

Home | Current Version | Previous Version | Text Only | Print | Product List | Glossary On
Versions: 1 2 3 4 5 6 7 8 9 10 11 12
000
FTUS46 KSEW 011700
TAFPAE
TAF
KPAE 011720Z 0118/0218 20010KT P6SM SCT015 BKN050
      TEMPO 0118/0122 BKN015 BKN050
     FM012200 VRB04KT P6SM VCSH BKN020 BKN050
      TEMPO 0122/0202 -SHRA BKN020 BKN050
     FM021000 18005KT P6SM BKN015=

USA.gov is the U.S. government's official web portal to all federal, state and local government web resources and services.